sensor_id;sensor_type;location;lat;lon;timestamp;P1;durP1;ratioP1;P2;durP2;ratioP2
16832;SDS011;8533;48.426;10.868;2022-10-16T00:01:27;4.87;;;3.03;;
16832;SDS011;8533;48.426;10.868;2022-10-16T00:03:56;3.83;;;3.13;;
16832;SDS011;8533;48.426;10.868;2022-10-16T00:06:25;6.10;;;3.50;;
16832;SDS011;8533;48.426;10.868;2022-10-16T00:08:54;4.70;;;3.40;;
16832;SDS011;8533;48.426;10.868;2022-10-16T00:11:23;3.90;;;3.10;;
16832;SDS011;8533;48.426;10.868;2022-10-16T00:13:55;5.93;;;3.47;;
16832;SDS011;8533;48.426;10.868;2022-10-16T00:16:23;4.43;;;3.30;;
16832;SDS011;8533;48.426;10.868;2022-10-16T00:18:51;5.93;;;3.50;;
16832;SDS011;8533;48.426;10.868;2022-10-16T00:21:20;3.43;;;2.80;;
16832;SDS011;8533;48.426;10.868;2022-10-16T00:23:53;6.07;;;3.50;;
16832;SDS011;8533;48.426;10.868;2022-10-16T00:28:51;4.37;;;3.00;;
16832;SDS011;8533;48.426;10.868;2022-10-16T00:31:20;3.40;;;3.00;;
16832;SDS011;8533;48.426;10.868;2022-10-16T00:33:49;5.97;;;3.00;;
16832;SDS011;8533;48.426;10.868;2022-10-16T00:36:18;4.13;;;2.80;;
16832;SDS011;8533;48.426;10.868;2022-10-16T00:38:46;11.93;;;3.27;;
16832;SDS011;8533;48.426;10.868;2022-10-16T00:41:16;3.63;;;2.73;;
16832;SDS011;8533;48.426;10.868;2022-10-16T00:43:50;3.27;;;2.57;;
16832;SDS011;8533;48.426;10.868;2022-10-16T00:48:55;6.03;;;2.70;;
16832;SDS011;8533;48.426;10.868;2022-10-16T00:51:23;4.33;;;2.90;;
16832;SDS011;8533;48.426;10.868;2022-10-16T00:53:56;5.23;;;3.07;;
16832;SDS011;8533;48.426;10.868;2022-10-16T00:56:24;4.10;;;2.73;;
16832;SDS011;8533;48.426;10.868;2022-10-16T00:58:51;3.23;;;2.70;;
16832;SDS011;8533;48.426;10.868;2022-10-16T01:01:19;2.90;;;2.40;;
16832;SDS011;8533;48.426;10.868;2022-10-16T01:03:47;2.60;;;2.00;;
16832;SDS011;8533;48.426;10.868;2022-10-16T01:09:13;2.83;;;2.50;;
16832;SDS011;8533;48.426;10.868;2022-10-16T01:12:01;3.20;;;2.37;;
16832;SDS011;8533;48.426;10.868;2022-10-16T01:17:11;5.43;;;3.10;;
16832;SDS011;8533;48.426;10.868;2022-10-16T01:22:34;5.05;;;3.15;;
16832;SDS011;8533;48.426;10.868;2022-10-16T01:25:03;5.00;;;3.30;;
16832;SDS011;8533;48.426;10.868;2022-10-16T01:27:33;4.20;;;2.90;;
16832;SDS011;8533;48.426;10.868;2022-10-16T01:30:11;4.37;;;3.03;;
16832;SDS011;8533;48.426;10.868;2022-10-16T01:35:16;3.87;;;2.77;;
16832;SDS011;8533;48.426;10.868;2022-10-16T01:40:46;4.07;;;2.80;;
16832;SDS011;8533;48.426;10.868;2022-10-16T01:43:26;3.83;;;2.77;;
16832;SDS011;8533;48.426;10.868;2022-10-16T01:45:52;3.20;;;2.30;;
16832;SDS011;8533;48.426;10.868;2022-10-16T01:48:20;2.90;;;2.40;;
16832;SDS011;8533;48.426;10.868;2022-10-16T01:50:55;5.47;;;2.27;;
16832;SDS011;8533;48.426;10.868;2022-10-16T01:53:20;3.03;;;2.60;;
16832;SDS011;8533;48.426;10.868;2022-10-16T01:55:50;3.10;;;2.23;;
16832;SDS011;8533;48.426;10.868;2022-10-16T01:58:21;4.53;;;2.90;;
16832;SDS011;8533;48.426;10.868;2022-10-16T02:00:50;2.53;;;2.33;;
16832;SDS011;8533;48.426;10.868;2022-10-16T02:03:20;4.63;;;2.67;;
16832;SDS011;8533;48.426;10.868;2022-10-16T02:05:50;2.50;;;2.30;;
16832;SDS011;8533;48.426;10.868;2022-10-16T02:08:21;3.33;;;2.47;;
16832;SDS011;8533;48.426;10.868;2022-10-16T02:10:51;2.63;;;2.13;;
16832;SDS011;8533;48.426;10.868;2022-10-16T02:13:21;2.50;;;2.17;;
16832;SDS011;8533;48.426;10.868;2022-10-16T02:15:52;2.87;;;2.47;;
16832;SDS011;8533;48.426;10.868;2022-10-16T02:18:20;2.77;;;2.33;;
16832;SDS011;8533;48.426;10.868;2022-10-16T02:20:52;2.53;;;2.10;;
16832;SDS011;8533;48.426;10.868;2022-10-16T02:23:27;3.60;;;2.70;;
16832;SDS011;8533;48.426;10.868;2022-10-16T02:25:55;3.90;;;2.80;;
16832;SDS011;8533;48.426;10.868;2022-10-16T02:28:30;3.00;;;2.53;;
16832;SDS011;8533;48.426;10.868;2022-10-16T02:31:08;4.80;;;3.10;;
16832;SDS011;8533;48.426;10.868;2022-10-16T02:33:38;3.10;;;2.80;;
16832;SDS011;8533;48.426;10.868;2022-10-16T02:36:08;5.70;;;3.00;;
16832;SDS011;8533;48.426;10.868;2022-10-16T02:38:37;7.53;;;4.40;;
16832;SDS011;8533;48.426;10.868;2022-10-16T02:41:07;7.47;;;3.20;;
16832;SDS011;8533;48.426;10.868;2022-10-16T02:43:35;3.77;;;2.83;;
16832;SDS011;8533;48.426;10.868;2022-10-16T02:46:02;9.97;;;3.20;;
16832;SDS011;8533;48.426;10.868;2022-10-16T02:48:30;4.33;;;2.60;;
16832;SDS011;8533;48.426;10.868;2022-10-16T02:50:57;2.97;;;2.30;;
16832;SDS011;8533;48.426;10.868;2022-10-16T02:53:24;3.47;;;2.03;;
16832;SDS011;8533;48.426;10.868;2022-10-16T02:55:52;3.37;;;2.00;;
16832;SDS011;8533;48.426;10.868;2022-10-16T02:58:19;2.67;;;2.20;;
16832;SDS011;8533;48.426;10.868;2022-10-16T03:00:47;5.80;;;2.53;;
16832;SDS011;8533;48.426;10.868;2022-10-16T03:03:14;2.40;;;1.93;;
16832;SDS011;8533;48.426;10.868;2022-10-16T03:05:42;4.60;;;1.73;;
16832;SDS011;8533;48.426;10.868;2022-10-16T03:08:12;3.30;;;2.20;;
16832;SDS011;8533;48.426;10.868;2022-10-16T03:10:40;2.40;;;1.87;;
16832;SDS011;8533;48.426;10.868;2022-10-16T03:13:08;3.10;;;2.00;;
16832;SDS011;8533;48.426;10.868;2022-10-16T03:15:35;2.27;;;1.90;;
16832;SDS011;8533;48.426;10.868;2022-10-16T03:18:03;2.10;;;1.90;;
16832;SDS011;8533;48.426;10.868;2022-10-16T03:20:30;6.10;;;2.20;;
16832;SDS011;8533;48.426;10.868;2022-10-16T03:22:58;2.10;;;1.90;;
16832;SDS011;8533;48.426;10.868;2022-10-16T03:25:25;3.63;;;2.27;;
16832;SDS011;8533;48.426;10.868;2022-10-16T03:27:53;2.37;;;1.80;;
16832;SDS011;8533;48.426;10.868;2022-10-16T03:30:20;2.67;;;1.93;;
16832;SDS011;8533;48.426;10.868;2022-10-16T03:32:48;3.40;;;2.10;;
16832;SDS011;8533;48.426;10.868;2022-10-16T03:35:17;2.63;;;2.17;;
16832;SDS011;8533;48.426;10.868;2022-10-16T03:37:44;3.40;;;2.20;;
16832;SDS011;8533;48.426;10.868;2022-10-16T03:40:12;2.87;;;2.10;;
16832;SDS011;8533;48.426;10.868;2022-10-16T03:42:42;3.63;;;2.20;;
16832;SDS011;8533;48.426;10.868;2022-10-16T03:45:10;2.80;;;2.10;;
16832;SDS011;8533;48.426;10.868;2022-10-16T03:47:37;3.53;;;2.60;;
16832;SDS011;8533;48.426;10.868;2022-10-16T03:50:05;3.07;;;1.93;;
16832;SDS011;8533;48.426;10.868;2022-10-16T03:52:33;2.10;;;1.90;;
16832;SDS011;8533;48.426;10.868;2022-10-16T03:55:01;3.10;;;2.00;;
16832;SDS011;8533;48.426;10.868;2022-10-16T03:57:28;2.67;;;1.77;;
16832;SDS011;8533;48.426;10.868;2022-10-16T03:59:55;4.90;;;2.10;;
16832;SDS011;8533;48.426;10.868;2022-10-16T04:02:23;2.03;;;1.83;;
16832;SDS011;8533;48.426;10.868;2022-10-16T04:04:50;2.07;;;1.87;;
16832;SDS011;8533;48.426;10.868;2022-10-16T04:07:18;4.00;;;2.13;;
16832;SDS011;8533;48.426;10.868;2022-10-16T04:09:45;3.47;;;2.07;;
16832;SDS011;8533;48.426;10.868;2022-10-16T04:12:13;4.03;;;1.70;;
16832;SDS011;8533;48.426;10.868;2022-10-16T04:14:40;2.60;;;2.10;;
16832;SDS011;8533;48.426;10.868;2022-10-16T04:17:08;3.07;;;2.13;;
16832;SDS011;8533;48.426;10.868;2022-10-16T04:19:35;2.83;;;2.17;;
16832;SDS011;8533;48.426;10.868;2022-10-16T04:22:02;3.87;;;2.27;;
16832;SDS011;8533;48.426;10.868;2022-10-16T04:24:30;2.40;;;2.00;;
16832;SDS011;8533;48.426;10.868;2022-10-16T04:26:57;3.80;;;2.17;;
16832;SDS011;8533;48.426;10.868;2022-10-16T04:29:25;2.80;;;2.20;;
16832;SDS011;8533;48.426;10.868;2022-10-16T04:31:52;3.07;;;2.33;;
16832;SDS011;8533;48.426;10.868;2022-10-16T04:34:20;5.17;;;2.10;;
16832;SDS011;8533;48.426;10.868;2022-10-16T04:36:47;4.20;;;2.23;;
16832;SDS011;8533;48.426;10.868;2022-10-16T04:39:15;2.43;;;2.10;;
16832;SDS011;8533;48.426;10.868;2022-10-16T04:41:43;2.93;;;1.77;;
16832;SDS011;8533;48.426;10.868;2022-10-16T04:44:10;5.13;;;1.70;;
16832;SDS011;8533;48.426;10.868;2022-10-16T04:46:37;6.03;;;1.80;;
16832;SDS011;8533;48.426;10.868;2022-10-16T04:49:05;3.53;;;1.70;;
16832;SDS011;8533;48.426;10.868;2022-10-16T04:51:32;2.23;;;1.70;;
16832;SDS011;8533;48.426;10.868;2022-10-16T04:54:00;1.83;;;1.70;;
16832;SDS011;8533;48.426;10.868;2022-10-16T04:56:27;1.60;;;1.50;;
16832;SDS011;8533;48.426;10.868;2022-10-16T04:58:55;6.07;;;2.00;;
16832;SDS011;8533;48.426;10.868;2022-10-16T05:01:22;4.13;;;1.87;;
16832;SDS011;8533;48.426;10.868;2022-10-16T05:03:49;2.77;;;1.73;;
16832;SDS011;8533;48.426;10.868;2022-10-16T05:06:17;6.73;;;1.80;;
16832;SDS011;8533;48.426;10.868;2022-10-16T05:08:44;2.00;;;1.80;;
16832;SDS011;8533;48.426;10.868;2022-10-16T05:11:12;3.80;;;1.43;;
16832;SDS011;8533;48.426;10.868;2022-10-16T05:13:39;1.70;;;1.60;;
16832;SDS011;8533;48.426;10.868;2022-10-16T05:16:06;3.90;;;1.33;;
16832;SDS011;8533;48.426;10.868;2022-10-16T05:18:34;2.60;;;1.57;;
16832;SDS011;8533;48.426;10.868;2022-10-16T05:21:01;1.50;;;1.40;;
16832;SDS011;8533;48.426;10.868;2022-10-16T05:23:29;2.20;;;1.50;;
16832;SDS011;8533;48.426;10.868;2022-10-16T05:25:57;1.67;;;1.57;;
16832;SDS011;8533;48.426;10.868;2022-10-16T05:28:26;2.03;;;1.90;;
16832;SDS011;8533;48.426;10.868;2022-10-16T05:30:56;1.83;;;1.70;;
16832;SDS011;8533;48.426;10.868;2022-10-16T05:33:25;1.60;;;1.50;;
16832;SDS011;8533;48.426;10.868;2022-10-16T05:35:52;2.10;;;1.70;;
16832;SDS011;8533;48.426;10.868;2022-10-16T05:38:20;3.87;;;1.70;;
16832;SDS011;8533;48.426;10.868;2022-10-16T05:40:50;1.80;;;1.63;;
16832;SDS011;8533;48.426;10.868;2022-10-16T05:43:18;2.27;;;2.00;;
16832;SDS011;8533;48.426;10.868;2022-10-16T05:46:05;3.50;;;1.97;;
16832;SDS011;8533;48.426;10.868;2022-10-16T05:48:33;2.10;;;1.83;;
16832;SDS011;8533;48.426;10.868;2022-10-16T05:51:06;2.67;;;2.17;;
16832;SDS011;8533;48.426;10.868;2022-10-16T05:53:32;3.70;;;2.00;;
16832;SDS011;8533;48.426;10.868;2022-10-16T05:56:01;2.73;;;1.90;;
16832;SDS011;8533;48.426;10.868;2022-10-16T05:58:33;3.30;;;1.53;;
16832;SDS011;8533;48.426;10.868;2022-10-16T06:01:03;2.77;;;1.60;;
16832;SDS011;8533;48.426;10.868;2022-10-16T06:03:33;2.97;;;1.87;;
16832;SDS011;8533;48.426;10.868;2022-10-16T06:06:10;1.50;;;1.40;;
16832;SDS011;8533;48.426;10.868;2022-10-16T06:11:07;4.27;;;1.87;;
16832;SDS011;8533;48.426;10.868;2022-10-16T06:13:37;2.43;;;2.03;;
16832;SDS011;8533;48.426;10.868;2022-10-16T06:16:06;4.97;;;2.10;;
16832;SDS011;8533;48.426;10.868;2022-10-16T06:18:33;2.13;;;1.90;;
16832;SDS011;8533;48.426;10.868;2022-10-16T06:21:06;3.13;;;2.20;;
16832;SDS011;8533;48.426;10.868;2022-10-16T06:26:05;3.03;;;2.70;;
16832;SDS011;8533;48.426;10.868;2022-10-16T06:28:33;5.70;;;2.70;;
16832;SDS011;8533;48.426;10.868;2022-10-16T06:31:02;2.90;;;2.40;;
16832;SDS011;8533;48.426;10.868;2022-10-16T06:33:30;2.60;;;2.33;;
16832;SDS011;8533;48.426;10.868;2022-10-16T06:36:06;4.27;;;2.40;;
16832;SDS011;8533;48.426;10.868;2022-10-16T06:38:32;3.90;;;2.93;;
16832;SDS011;8533;48.426;10.868;2022-10-16T06:41:00;4.30;;;3.00;;
16832;SDS011;8533;48.426;10.868;2022-10-16T06:43:30;3.73;;;2.60;;
16832;SDS011;8533;48.426;10.868;2022-10-16T06:46:00;3.90;;;2.33;;
16832;SDS011;8533;48.426;10.868;2022-10-16T06:48:29;3.07;;;2.40;;
16832;SDS011;8533;48.426;10.868;2022-10-16T06:50:57;4.77;;;2.50;;
16832;SDS011;8533;48.426;10.868;2022-10-16T06:56:07;3.80;;;2.03;;
16832;SDS011;8533;48.426;10.868;2022-10-16T07:01:02;2.00;;;1.80;;
16832;SDS011;8533;48.426;10.868;2022-10-16T07:03:30;4.43;;;2.13;;
16832;SDS011;8533;48.426;10.868;2022-10-16T07:06:01;2.73;;;2.20;;
16832;SDS011;8533;48.426;10.868;2022-10-16T07:08:34;3.47;;;2.23;;
16832;SDS011;8533;48.426;10.868;2022-10-16T07:11:03;2.50;;;2.13;;
16832;SDS011;8533;48.426;10.868;2022-10-16T07:13:36;3.77;;;2.40;;
16832;SDS011;8533;48.426;10.868;2022-10-16T07:18:36;2.50;;;1.80;;
16832;SDS011;8533;48.426;10.868;2022-10-16T07:21:10;2.73;;;2.03;;
16832;SDS011;8533;48.426;10.868;2022-10-16T07:23:39;1.83;;;1.70;;
16832;SDS011;8533;48.426;10.868;2022-10-16T07:26:07;2.13;;;1.83;;
16832;SDS011;8533;48.426;10.868;2022-10-16T07:28:35;1.83;;;1.60;;
16832;SDS011;8533;48.426;10.868;2022-10-16T07:31:03;2.00;;;1.80;;
16832;SDS011;8533;48.426;10.868;2022-10-16T07:33:34;1.60;;;1.50;;
16832;SDS011;8533;48.426;10.868;2022-10-16T07:36:01;3.73;;;1.70;;
16832;SDS011;8533;48.426;10.868;2022-10-16T07:38:29;1.83;;;1.50;;
16832;SDS011;8533;48.426;10.868;2022-10-16T07:40:57;1.43;;;1.27;;
16832;SDS011;8533;48.426;10.868;2022-10-16T07:43:25;3.20;;;1.60;;
16832;SDS011;8533;48.426;10.868;2022-10-16T07:45:53;2.50;;;1.20;;
16832;SDS011;8533;48.426;10.868;2022-10-16T07:48:21;1.50;;;1.30;;
16832;SDS011;8533;48.426;10.868;2022-10-16T07:50:49;3.30;;;1.67;;
16832;SDS011;8533;48.426;10.868;2022-10-16T07:53:17;1.67;;;1.40;;
16832;SDS011;8533;48.426;10.868;2022-10-16T07:55:44;1.93;;;1.57;;
16832;SDS011;8533;48.426;10.868;2022-10-16T07:58:12;2.67;;;1.40;;
16832;SDS011;8533;48.426;10.868;2022-10-16T08:00:39;1.50;;;1.40;;
16832;SDS011;8533;48.426;10.868;2022-10-16T08:03:07;1.50;;;1.40;;
16832;SDS011;8533;48.426;10.868;2022-10-16T08:05:35;1.63;;;1.53;;
16832;SDS011;8533;48.426;10.868;2022-10-16T08:08:02;1.60;;;1.50;;
16832;SDS011;8533;48.426;10.868;2022-10-16T08:10:30;1.60;;;1.50;;
16832;SDS011;8533;48.426;10.868;2022-10-16T08:12:57;2.00;;;1.33;;
16832;SDS011;8533;48.426;10.868;2022-10-16T08:15:25;1.63;;;1.50;;
16832;SDS011;8533;48.426;10.868;2022-10-16T08:17:58;3.50;;;1.43;;
16832;SDS011;8533;48.426;10.868;2022-10-16T08:22:55;1.40;;;1.30;;
16832;SDS011;8533;48.426;10.868;2022-10-16T08:25:23;1.43;;;1.33;;
16832;SDS011;8533;48.426;10.868;2022-10-16T08:27:50;2.00;;;1.77;;
16832;SDS011;8533;48.426;10.868;2022-10-16T08:30:18;4.13;;;1.60;;
16832;SDS011;8533;48.426;10.868;2022-10-16T08:32:48;1.63;;;1.30;;
16832;SDS011;8533;48.426;10.868;2022-10-16T08:35:15;4.23;;;1.50;;
16832;SDS011;8533;48.426;10.868;2022-10-16T08:37:43;1.50;;;1.40;;
16832;SDS011;8533;48.426;10.868;2022-10-16T08:40:27;1.63;;;1.40;;
16832;SDS011;8533;48.426;10.868;2022-10-16T08:50:51;2.85;;;1.10;;
16832;SDS011;8533;48.426;10.868;2022-10-16T08:53:26;5.13;;;1.70;;
16832;SDS011;8533;48.426;10.868;2022-10-16T08:58:27;1.20;;;1.10;;
16832;SDS011;8533;48.426;10.868;2022-10-16T09:01:00;2.20;;;1.20;;
16832;SDS011;8533;48.426;10.868;2022-10-16T09:03:35;1.67;;;1.47;;
16832;SDS011;8533;48.426;10.868;2022-10-16T09:11:34;2.65;;;1.30;;
16832;SDS011;8533;48.426;10.868;2022-10-16T09:16:36;1.20;;;1.10;;
16832;SDS011;8533;48.426;10.868;2022-10-16T09:24:14;1.27;;;1.13;;
16832;SDS011;8533;48.426;10.868;2022-10-16T09:26:46;2.00;;;1.17;;
16832;SDS011;8533;48.426;10.868;2022-10-16T09:29:14;1.20;;;1.10;;
16832;SDS011;8533;48.426;10.868;2022-10-16T09:31:46;1.30;;;1.20;;
16832;SDS011;8533;48.426;10.868;2022-10-16T09:34:30;1.97;;;1.20;;
16832;SDS011;8533;48.426;10.868;2022-10-16T09:36:59;1.20;;;1.10;;
16832;SDS011;8533;48.426;10.868;2022-10-16T09:39:29;1.37;;;1.27;;
16832;SDS011;8533;48.426;10.868;2022-10-16T09:41:56;1.13;;;0.90;;
16832;SDS011;8533;48.426;10.868;2022-10-16T09:47:12;1.13;;;0.93;;
16832;SDS011;8533;48.426;10.868;2022-10-16T09:49:58;0.77;;;0.77;;
16832;SDS011;8533;48.426;10.868;2022-10-16T09:52:29;1.30;;;1.20;;
16832;SDS011;8533;48.426;10.868;2022-10-16T09:54:58;1.10;;;1.00;;
16832;SDS011;8533;48.426;10.868;2022-10-16T09:57:27;2.37;;;0.97;;
16832;SDS011;8533;48.426;10.868;2022-10-16T09:59:56;2.30;;;1.10;;
16832;SDS011;8533;48.426;10.868;2022-10-16T10:02:34;1.93;;;1.23;;
16832;SDS011;8533;48.426;10.868;2022-10-16T10:10:22;1.27;;;1.17;;
16832;SDS011;8533;48.426;10.868;2022-10-16T10:15:18;1.40;;;1.30;;
16832;SDS011;8533;48.426;10.868;2022-10-16T10:17:53;1.23;;;1.13;;
16832;SDS011;8533;48.426;10.868;2022-10-16T10:20:22;1.20;;;1.10;;
16832;SDS011;8533;48.426;10.868;2022-10-16T10:25:34;2.03;;;1.10;;
16832;SDS011;8533;48.426;10.868;2022-10-16T10:38:55;1.67;;;1.37;;
16832;SDS011;8533;48.426;10.868;2022-10-16T10:46:48;1.63;;;1.40;;
16832;SDS011;8533;48.426;10.868;2022-10-16T10:49:43;1.80;;;1.50;;
16832;SDS011;8533;48.426;10.868;2022-10-16T10:57:35;1.23;;;1.07;;
16832;SDS011;8533;48.426;10.868;2022-10-16T11:08:01;2.43;;;1.20;;
16832;SDS011;8533;48.426;10.868;2022-10-16T11:10:30;0.80;;;0.80;;
16832;SDS011;8533;48.426;10.868;2022-10-16T11:16:06;1.10;;;1.00;;
16832;SDS011;8533;48.426;10.868;2022-10-16T11:21:11;0.87;;;0.87;;
16832;SDS011;8533;48.426;10.868;2022-10-16T11:26:28;5.43;;;1.00;;
16832;SDS011;8533;48.426;10.868;2022-10-16T11:28:45;0.80;;;0.80;;
16832;SDS011;8533;48.426;10.868;2022-10-16T11:31:30;1.10;;;1.00;;
16832;SDS011;8533;48.426;10.868;2022-10-16T11:34:17;0.80;;;0.80;;
16832;SDS011;8533;48.426;10.868;2022-10-16T11:36:53;1.10;;;1.00;;
16832;SDS011;8533;48.426;10.868;2022-10-16T11:39:39;2.53;;;1.37;;
16832;SDS011;8533;48.426;10.868;2022-10-16T11:42:22;1.07;;;1.00;;
16832;SDS011;8533;48.426;10.868;2022-10-16T11:44:54;0.90;;;0.70;;
16832;SDS011;8533;48.426;10.868;2022-10-16T11:50:20;1.30;;;1.20;;
16832;SDS011;8533;48.426;10.868;2022-10-16T11:55:36;1.43;;;0.97;;
16832;SDS011;8533;48.426;10.868;2022-10-16T12:00:46;0.93;;;0.90;;
16832;SDS011;8533;48.426;10.868;2022-10-16T12:08:30;1.17;;;1.10;;
16832;SDS011;8533;48.426;10.868;2022-10-16T12:11:08;2.57;;;0.97;;
16832;SDS011;8533;48.426;10.868;2022-10-16T12:21:13;0.90;;;0.90;;
16832;SDS011;8533;48.426;10.868;2022-10-16T12:23:51;1.13;;;1.03;;
16832;SDS011;8533;48.426;10.868;2022-10-16T12:26:36;1.00;;;1.00;;
16832;SDS011;8533;48.426;10.868;2022-10-16T12:29:11;1.20;;;1.10;;
16832;SDS011;8533;48.426;10.868;2022-10-16T12:31:44;1.30;;;1.20;;
16832;SDS011;8533;48.426;10.868;2022-10-16T12:34:17;1.77;;;0.80;;
16832;SDS011;8533;48.426;10.868;2022-10-16T12:36:56;1.00;;;1.00;;
16832;SDS011;8533;48.426;10.868;2022-10-16T12:39:27;0.93;;;0.93;;
16832;SDS011;8533;48.426;10.868;2022-10-16T12:42:02;1.40;;;1.00;;
16832;SDS011;8533;48.426;10.868;2022-10-16T12:46:59;0.97;;;0.97;;
16832;SDS011;8533;48.426;10.868;2022-10-16T12:51:58;0.93;;;0.80;;
16832;SDS011;8533;48.426;10.868;2022-10-16T12:54:30;0.80;;;0.80;;
16832;SDS011;8533;48.426;10.868;2022-10-16T13:02:42;1.20;;;1.10;;
16832;SDS011;8533;48.426;10.868;2022-10-16T13:05:17;2.60;;;1.10;;
16832;SDS011;8533;48.426;10.868;2022-10-16T13:10:40;0.87;;;0.87;;
16832;SDS011;8533;48.426;10.868;2022-10-16T13:18:12;2.67;;;0.83;;
16832;SDS011;8533;48.426;10.868;2022-10-16T13:23:21;2.00;;;1.00;;
16832;SDS011;8533;48.426;10.868;2022-10-16T13:26:00;1.10;;;1.00;;
16832;SDS011;8533;48.426;10.868;2022-10-16T13:28:40;1.73;;;1.07;;
16832;SDS011;8533;48.426;10.868;2022-10-16T13:31:26;0.70;;;0.70;;
16832;SDS011;8533;48.426;10.868;2022-10-16T13:36:28;1.20;;;0.93;;
16832;SDS011;8533;48.426;10.868;2022-10-16T13:39:06;1.17;;;1.07;;
16832;SDS011;8533;48.426;10.868;2022-10-16T13:41:40;1.10;;;1.00;;
16832;SDS011;8533;48.426;10.868;2022-10-16T13:44:20;0.70;;;0.70;;
16832;SDS011;8533;48.426;10.868;2022-10-16T13:49:16;1.03;;;0.97;;
16832;SDS011;8533;48.426;10.868;2022-10-16T13:51:55;1.33;;;0.90;;
16832;SDS011;8533;48.426;10.868;2022-10-16T13:56:52;2.67;;;0.80;;
16832;SDS011;8533;48.426;10.868;2022-10-16T13:59:26;2.07;;;1.20;;
16832;SDS011;8533;48.426;10.868;2022-10-16T14:04:23;1.10;;;1.00;;
16832;SDS011;8533;48.426;10.868;2022-10-16T14:06:54;0.97;;;0.93;;
16832;SDS011;8533;48.426;10.868;2022-10-16T14:12:03;1.20;;;1.10;;
16832;SDS011;8533;48.426;10.868;2022-10-16T14:19:47;1.23;;;1.13;;
16832;SDS011;8533;48.426;10.868;2022-10-16T14:22:24;2.60;;;1.10;;
16832;SDS011;8533;48.426;10.868;2022-10-16T14:27:30;1.13;;;1.10;;
16832;SDS011;8533;48.426;10.868;2022-10-16T14:35:03;1.30;;;1.20;;
16832;SDS011;8533;48.426;10.868;2022-10-16T14:37:30;1.50;;;1.10;;
16832;SDS011;8533;48.426;10.868;2022-10-16T14:39:58;1.80;;;1.20;;
16832;SDS011;8533;48.426;10.868;2022-10-16T14:42:28;1.47;;;1.37;;
16832;SDS011;8533;48.426;10.868;2022-10-16T14:44:56;1.73;;;1.30;;
16832;SDS011;8533;48.426;10.868;2022-10-16T14:47:24;1.90;;;1.30;;
16832;SDS011;8533;48.426;10.868;2022-10-16T14:49:53;1.63;;;1.30;;
16832;SDS011;8533;48.426;10.868;2022-10-16T14:52:22;1.10;;;1.00;;
16832;SDS011;8533;48.426;10.868;2022-10-16T14:54:50;1.77;;;1.00;;
16832;SDS011;8533;48.426;10.868;2022-10-16T14:57:26;0.97;;;0.90;;
16832;SDS011;8533;48.426;10.868;2022-10-16T14:59:54;5.17;;;1.20;;
16832;SDS011;8533;48.426;10.868;2022-10-16T15:02:28;1.37;;;1.10;;
16832;SDS011;8533;48.426;10.868;2022-10-16T15:04:53;1.13;;;1.03;;
16832;SDS011;8533;48.426;10.868;2022-10-16T15:07:22;1.13;;;1.03;;
16832;SDS011;8533;48.426;10.868;2022-10-16T15:09:49;1.53;;;1.00;;
16832;SDS011;8533;48.426;10.868;2022-10-16T15:12:18;1.50;;;1.23;;
16832;SDS011;8533;48.426;10.868;2022-10-16T15:14:45;5.83;;;1.13;;
16832;SDS011;8533;48.426;10.868;2022-10-16T15:17:13;1.53;;;1.20;;
16832;SDS011;8533;48.426;10.868;2022-10-16T15:19:40;0.93;;;0.93;;
16832;SDS011;8533;48.426;10.868;2022-10-16T15:22:09;1.67;;;1.30;;
16832;SDS011;8533;48.426;10.868;2022-10-16T15:24:38;2.80;;;1.20;;
16832;SDS011;8533;48.426;10.868;2022-10-16T15:27:05;2.10;;;1.40;;
16832;SDS011;8533;48.426;10.868;2022-10-16T15:29:32;1.30;;;1.20;;
16832;SDS011;8533;48.426;10.868;2022-10-16T15:32:00;1.37;;;1.20;;
16832;SDS011;8533;48.426;10.868;2022-10-16T15:34:27;1.70;;;1.47;;
16832;SDS011;8533;48.426;10.868;2022-10-16T15:36:55;1.57;;;1.40;;
16832;SDS011;8533;48.426;10.868;2022-10-16T15:39:23;3.80;;;1.60;;
16832;SDS011;8533;48.426;10.868;2022-10-16T15:41:50;3.77;;;1.20;;
16832;SDS011;8533;48.426;10.868;2022-10-16T15:44:19;1.90;;;1.40;;
16832;SDS011;8533;48.426;10.868;2022-10-16T15:46:53;1.63;;;1.17;;
16832;SDS011;8533;48.426;10.868;2022-10-16T15:49:22;2.63;;;1.50;;
16832;SDS011;8533;48.426;10.868;2022-10-16T15:51:49;1.53;;;1.43;;
16832;SDS011;8533;48.426;10.868;2022-10-16T15:54:18;2.37;;;1.57;;
16832;SDS011;8533;48.426;10.868;2022-10-16T15:56:47;1.87;;;1.40;;
16832;SDS011;8533;48.426;10.868;2022-10-16T15:59:15;1.83;;;1.40;;
16832;SDS011;8533;48.426;10.868;2022-10-16T16:01:42;2.50;;;1.80;;
16832;SDS011;8533;48.426;10.868;2022-10-16T16:04:09;1.70;;;1.60;;
16832;SDS011;8533;48.426;10.868;2022-10-16T16:06:37;4.20;;;1.80;;
16832;SDS011;8533;48.426;10.868;2022-10-16T16:09:06;2.03;;;1.70;;
16832;SDS011;8533;48.426;10.868;2022-10-16T16:11:34;2.33;;;1.80;;
16832;SDS011;8533;48.426;10.868;2022-10-16T16:14:03;4.13;;;2.27;;
16832;SDS011;8533;48.426;10.868;2022-10-16T16:16:31;5.97;;;2.47;;
16832;SDS011;8533;48.426;10.868;2022-10-16T16:19:00;3.37;;;2.07;;
16832;SDS011;8533;48.426;10.868;2022-10-16T16:21:28;5.20;;;2.53;;
16832;SDS011;8533;48.426;10.868;2022-10-16T16:23:55;3.37;;;2.53;;
16832;SDS011;8533;48.426;10.868;2022-10-16T16:26:24;3.83;;;3.10;;
16832;SDS011;8533;48.426;10.868;2022-10-16T16:28:54;4.03;;;3.37;;
16832;SDS011;8533;48.426;10.868;2022-10-16T16:31:25;4.03;;;3.00;;
16832;SDS011;8533;48.426;10.868;2022-10-16T16:33:54;3.97;;;3.10;;
16832;SDS011;8533;48.426;10.868;2022-10-16T16:36:22;3.40;;;2.50;;
16832;SDS011;8533;48.426;10.868;2022-10-16T16:38:51;3.97;;;2.40;;
16832;SDS011;8533;48.426;10.868;2022-10-16T16:41:24;4.43;;;2.37;;
16832;SDS011;8533;48.426;10.868;2022-10-16T16:43:49;2.43;;;1.70;;
16832;SDS011;8533;48.426;10.868;2022-10-16T16:46:19;3.27;;;2.00;;
16832;SDS011;8533;48.426;10.868;2022-10-16T16:48:47;3.97;;;1.97;;
16832;SDS011;8533;48.426;10.868;2022-10-16T16:51:17;3.93;;;2.00;;
16832;SDS011;8533;48.426;10.868;2022-10-16T16:53:45;1.87;;;1.50;;
16832;SDS011;8533;48.426;10.868;2022-10-16T16:56:15;3.73;;;1.97;;
16832;SDS011;8533;48.426;10.868;2022-10-16T16:58:46;4.67;;;3.10;;
16832;SDS011;8533;48.426;10.868;2022-10-16T17:01:15;5.40;;;2.07;;
16832;SDS011;8533;48.426;10.868;2022-10-16T17:03:43;2.30;;;1.70;;
16832;SDS011;8533;48.426;10.868;2022-10-16T17:06:12;5.23;;;2.10;;
16832;SDS011;8533;48.426;10.868;2022-10-16T17:08:40;2.93;;;1.97;;
16832;SDS011;8533;48.426;10.868;2022-10-16T17:11:17;2.20;;;1.97;;
16832;SDS011;8533;48.426;10.868;2022-10-16T17:13:42;3.60;;;1.97;;
16832;SDS011;8533;48.426;10.868;2022-10-16T17:16:10;2.47;;;1.87;;
16832;SDS011;8533;48.426;10.868;2022-10-16T17:18:38;2.00;;;1.70;;
16832;SDS011;8533;48.426;10.868;2022-10-16T17:21:08;2.20;;;2.00;;
16832;SDS011;8533;48.426;10.868;2022-10-16T17:23:36;3.67;;;2.13;;
16832;SDS011;8533;48.426;10.868;2022-10-16T17:26:05;5.30;;;2.10;;
16832;SDS011;8533;48.426;10.868;2022-10-16T17:28:35;2.47;;;1.73;;
16832;SDS011;8533;48.426;10.868;2022-10-16T17:31:09;5.63;;;2.23;;
16832;SDS011;8533;48.426;10.868;2022-10-16T17:36:09;2.43;;;2.10;;
16832;SDS011;8533;48.426;10.868;2022-10-16T17:38:38;3.40;;;2.30;;
16832;SDS011;8533;48.426;10.868;2022-10-16T17:41:17;3.63;;;2.33;;
16832;SDS011;8533;48.426;10.868;2022-10-16T17:46:15;6.23;;;3.60;;
16832;SDS011;8533;48.426;10.868;2022-10-16T17:48:45;7.47;;;3.00;;
16832;SDS011;8533;48.426;10.868;2022-10-16T17:51:15;4.40;;;2.90;;
16832;SDS011;8533;48.426;10.868;2022-10-16T17:53:51;5.43;;;2.80;;
16832;SDS011;8533;48.426;10.868;2022-10-16T17:58:48;4.17;;;2.93;;
16832;SDS011;8533;48.426;10.868;2022-10-16T18:01:18;4.97;;;2.70;;
16832;SDS011;8533;48.426;10.868;2022-10-16T18:03:48;6.47;;;2.80;;
16832;SDS011;8533;48.426;10.868;2022-10-16T18:06:21;5.43;;;3.10;;
16832;SDS011;8533;48.426;10.868;2022-10-16T18:08:49;4.00;;;2.80;;